Time;durP1;ratioP1;P1;durP2;ratioP2;P2;SDS_P1;SDS_P2;PMS_P1;PMS_P2;Temp;Humidity;BMP_temperature;BMP_pressure;BME280_temperature;BME280_humidity;BME280_pressure;Samples;Min_cycle;Max_cycle;Signal;HPM_P1;HPM_P2
2020/12/28 00:01:41;;;;;;;6.83;4.80;;;0.90;58.10;;;;;;5130248;27;20451;-74
2020/12/28 00:04:10;;;;;;;5.10;4.60;;;0.70;58.30;;;;;;5128714;27;20919;-75
2020/12/28 00:06:37;;;;;;;6.70;5.23;;;0.90;59.70;;;;;;5131730;27;20450;-74
2020/12/28 00:09:05;;;;;;;5.07;4.60;;;1.00;59.30;;;;;;5128684;27;20981;-75
2020/12/28 00:11:31;;;;;;;5.57;4.70;;;1.00;59.20;;;;;;5136324;27;20577;-74
2020/12/28 00:13:57;;;;;;;6.00;5.13;;;1.00;58.80;;;;;;5131103;27;20432;-75
2020/12/28 00:16:24;;;;;;;5.50;4.87;;;1.00;59.10;;;;;;5132324;27;20490;-74
2020/12/28 00:18:51;;;;;;;6.23;5.30;;;0.90;58.50;;;;;;5131290;27;20456;-75
2020/12/28 00:21:18;;;;;;;5.50;4.60;;;1.10;59.70;;;;;;5129349;27;20512;-74
2020/12/28 00:23:50;;;;;;;6.43;5.37;;;1.10;59.10;;;;;;5129172;27;20461;-74
2020/12/28 00:26:17;;;;;;;5.37;4.83;;;1.10;59.00;;;;;;5122347;27;20447;-74
2020/12/28 00:28:45;;;;;;;6.10;4.77;;;1.10;59.00;;;;;;5132779;27;20447;-75
2020/12/28 00:31:11;;;;;;;6.30;4.80;;;1.10;58.60;;;;;;5129242;27;20446;-74
2020/12/28 00:33:38;;;;;;;4.90;4.40;;;1.10;58.90;;;;;;5129299;27;20565;-74
2020/12/28 00:36:06;;;;;;;5.47;4.93;;;1.00;59.10;;;;;;5119207;27;20814;-74
2020/12/28 00:38:32;;;;;;;6.27;5.67;;;1.20;59.10;;;;;;5124582;27;20444;-74
2020/12/28 00:40:58;;;;;;;5.60;4.67;;;1.10;58.60;;;;;;5124585;27;20551;-74
2020/12/28 00:43:25;;;;;;;8.40;5.37;;;1.20;59.20;;;;;;5134265;27;20617;-74
2020/12/28 00:45:51;;;;;;;6.47;4.97;;;1.20;58.90;;;;;;5126848;27;20504;-75
2020/12/28 00:48:17;;;;;;;5.47;4.97;;;1.10;58.60;;;;;;5132746;27;20486;-75
2020/12/28 00:50:44;;;;;;;7.53;5.03;;;1.00;58.60;;;;;;5135544;27;20551;-76
2020/12/28 00:53:14;;;;;;;5.97;4.80;;;1.00;58.80;;;;;;5133423;27;20899;-74
2020/12/28 00:55:43;;;;;;;7.17;5.73;;;1.00;59.10;;;;;;5131970;27;20507;-75
2020/12/28 00:58:13;;;;;;;6.37;5.30;;;0.90;59.00;;;;;;5137022;27;20562;-74
2020/12/28 01:00:39;;;;;;;6.10;5.43;;;0.90;59.40;;;;;;5126121;27;20475;-74
2020/12/28 01:03:06;;;;;;;6.57;5.80;;;1.10;60.30;;;;;;5132252;27;20512;-75
2020/12/28 01:05:32;;;;;;;8.83;5.17;;;1.00;61.00;;;;;;5134227;27;21021;-74
2020/12/28 01:07:58;;;;;;;6.27;5.47;;;1.00;60.80;;;;;;5130878;27;20457;-75
2020/12/28 01:10:26;;;;;;;7.13;5.10;;;1.00;61.10;;;;;;5132048;27;20535;-76
2020/12/28 01:12:55;;;;;;;6.27;4.93;;;0.90;61.40;;;;;;5127104;27;20657;-74
2020/12/28 01:15:25;;;;;;;7.90;5.73;;;1.00;62.20;;;;;;5128853;27;20542;-74
2020/12/28 01:17:51;;;;;;;6.90;5.00;;;1.00;62.30;;;;;;5128132;27;21378;-74
2020/12/28 01:20:20;;;;;;;4.97;4.50;;;0.80;62.20;;;;;;5130317;27;20478;-74
2020/12/28 01:22:48;;;;;;;8.30;5.27;;;0.80;62.70;;;;;;5129259;27;20474;-74
2020/12/28 01:25:15;;;;;;;6.00;5.00;;;0.80;63.00;;;;;;5130913;27;20475;-73
2020/12/28 01:27:42;;;;;;;6.37;5.33;;;0.80;63.30;;;;;;5127267;27;20457;-74
2020/12/28 01:30:14;;;;;;;5.90;5.30;;;0.80;63.40;;;;;;5129252;27;20479;-74
2020/12/28 01:32:40;;;;;;;6.70;5.20;;;0.80;63.40;;;;;;5128455;27;20782;-74
2020/12/28 01:35:06;;;;;;;7.77;4.90;;;0.90;64.00;;;;;;5128208;27;20462;-74
2020/12/28 01:37:33;;;;;;;6.03;5.40;;;0.90;64.20;;;;;;5131761;27;20506;-74
2020/12/28 01:39:59;;;;;;;5.83;4.60;;;0.90;64.10;;;;;;5128854;27;20843;-74
2020/12/28 01:42:29;;;;;;;5.50;5.00;;;0.80;64.00;;;;;;5128595;27;20477;-73
2020/12/28 01:44:56;;;;;;;6.73;4.67;;;0.80;64.30;;;;;;5125585;27;20525;-73
2020/12/28 01:47:24;;;;;;;6.77;4.73;;;0.80;64.80;;;;;;5135837;27;20538;-74
2020/12/28 01:49:50;;;;;;;6.33;5.50;;;0.80;64.90;;;;;;5127087;27;20454;-73
2020/12/28 01:52:16;;;;;;;5.70;5.07;;;0.70;64.50;;;;;;5130154;27;21381;-74
2020/12/28 01:54:43;;;;;;;6.07;5.13;;;0.80;64.90;;;;;;5127318;27;20970;-72
2020/12/28 01:57:11;;;;;;;7.03;5.60;;;0.80;64.90;;;;;;5135480;27;20531;-73
2020/12/28 01:59:37;;;;;;;7.60;5.70;;;0.90;64.90;;;;;;5129904;27;20467;-73
2020/12/28 02:02:10;;;;;;;6.57;5.27;;;0.90;64.80;;;;;;5128931;27;20467;-73
2020/12/28 02:04:38;;;;;;;6.17;4.77;;;0.90;65.00;;;;;;5129453;27;20519;-73
2020/12/28 02:07:09;;;;;;;6.30;5.13;;;0.90;64.60;;;;;;5148956;27;20450;-73
2020/12/28 02:09:36;;;;;;;5.47;4.70;;;0.90;64.80;;;;;;5148028;27;20480;-73
2020/12/28 02:12:05;;;;;;;7.60;5.17;;;0.90;64.60;;;;;;5139783;27;20533;-74
2020/12/28 02:14:33;;;;;;;5.60;4.43;;;1.00;64.90;;;;;;5129843;27;20471;-74
2020/12/28 02:17:00;;;;;;;7.70;5.13;;;1.00;64.80;;;;;;5129393;27;20453;-74
2020/12/28 02:19:28;;;;;;;6.67;5.50;;;1.10;65.00;;;;;;5127825;27;20447;-74
2020/12/28 02:21:57;;;;;;;7.23;5.43;;;0.90;64.40;;;;;;5130868;27;20461;-74
2020/12/28 02:24:23;;;;;;;5.57;4.87;;;1.10;64.80;;;;;;5127478;27;20524;-74
2020/12/28 02:26:49;;;;;;;6.00;4.60;;;1.10;65.10;;;;;;5132141;27;20460;-73
2020/12/28 02:29:16;;;;;;;6.00;5.27;;;1.20;65.10;;;;;;5127083;27;21285;-74
2020/12/28 02:31:43;;;;;;;4.90;4.27;;;1.30;65.30;;;;;;5129555;27;20463;-74
2020/12/28 02:34:09;;;;;;;7.43;5.37;;;1.30;65.30;;;;;;5125477;27;20467;-75
2020/12/28 02:36:38;;;;;;;6.50;5.37;;;1.30;65.50;;;;;;5117824;27;20465;-75
2020/12/28 02:39:06;;;;;;;5.00;4.50;;;1.30;65.60;;;;;;5117114;27;20440;-74
2020/12/28 02:41:32;;;;;;;5.23;4.73;;;1.20;65.80;;;;;;5125057;27;20478;-74
2020/12/28 02:43:59;;;;;;;4.77;4.37;;;1.20;66.30;;;;;;5127987;27;20734;-75
2020/12/28 02:46:26;;;;;;;5.47;4.97;;;1.10;66.20;;;;;;5125005;27;20452;-75
2020/12/28 02:48:52;;;;;;;8.30;4.87;;;1.10;66.40;;;;;;5128944;27;20902;-74
2020/12/28 02:51:18;;;;;;;6.03;5.03;;;1.20;66.60;;;;;;5125880;27;20877;-74
2020/12/28 02:53:45;;;;;;;5.67;4.83;;;1.20;66.90;;;;;;5129631;27;20484;-74
2020/12/28 02:56:12;;;;;;;5.50;4.60;;;1.30;66.90;;;;;;5124186;27;20544;-75
2020/12/28 02:58:38;;;;;;;6.17;5.10;;;1.30;66.60;;;;;;5129137;27;20453;-73
2020/12/28 03:01:08;;;;;;;5.50;4.80;;;1.30;67.00;;;;;;5126226;27;20458;-74
2020/12/28 03:03:34;;;;;;;5.70;5.10;;;1.30;66.80;;;;;;5126818;27;20532;-74
2020/12/28 03:06:00;;;;;;;7.03;5.10;;;1.40;67.00;;;;;;5124862;27;20555;-74
2020/12/28 03:08:33;;;;;;;6.90;5.83;;;1.40;66.90;;;;;;5125609;27;20547;-74
2020/12/28 03:10:59;;;;;;;6.50;5.20;;;1.50;67.00;;;;;;5125114;27;20527;-74
2020/12/28 03:13:26;;;;;;;5.57;4.80;;;1.50;67.00;;;;;;5128120;27;20446;-74
2020/12/28 03:15:53;;;;;;;5.93;5.33;;;1.50;67.30;;;;;;5124415;27;20442;-76
2020/12/28 03:18:23;;;;;;;7.03;5.27;;;1.50;67.00;;;;;;5126691;27;21008;-74
2020/12/28 03:20:52;;;;;;;4.97;4.43;;;1.50;67.20;;;;;;5127886;27;20568;-74
2020/12/28 03:23:19;;;;;;;6.60;4.73;;;1.50;67.50;;;;;;5127134;27;20791;-74
2020/12/28 03:25:45;;;;;;;7.00;5.37;;;1.50;67.40;;;;;;5129482;27;20485;-74
2020/12/28 03:28:11;;;;;;;6.33;5.53;;;1.40;67.50;;;;;;5124415;27;20476;-74
2020/12/28 03:30:39;;;;;;;7.00;5.43;;;1.30;67.50;;;;;;5128825;27;20794;-73
2020/12/28 03:33:05;;;;;;;5.90;4.83;;;1.30;67.70;;;;;;5125764;27;20434;-74
2020/12/28 03:35:35;;;;;;;5.73;4.83;;;1.30;67.90;;;;;;5131294;27;20485;-74
2020/12/28 03:38:01;;;;;;;5.37;4.87;;;1.30;68.00;;;;;;5128858;27;20476;-74
2020/12/28 03:40:27;;;;;;;7.10;5.50;;;1.30;68.10;;;;;;5129071;27;20475;-74
2020/12/28 03:42:54;;;;;;;6.00;5.40;;;1.30;68.10;;;;;;5121341;27;20487;-74
2020/12/28 03:45:27;;;;;;;5.90;4.97;;;1.40;68.30;;;;;;5125059;27;20468;-74
2020/12/28 03:47:56;;;;;;;7.07;5.50;;;1.40;68.10;;;;;;5124082;27;20506;-74
2020/12/28 03:50:24;;;;;;;9.40;5.57;;;1.40;68.50;;;;;;5128487;27;20434;-74
2020/12/28 03:52:51;;;;;;;6.80;5.83;;;1.40;68.40;;;;;;5126046;27;20454;-73
2020/12/28 03:55:17;;;;;;;7.87;6.20;;;1.30;68.40;;;;;;5127773;27;20443;-73
2020/12/28 03:57:45;;;;;;;9.03;5.30;;;1.40;68.40;;;;;;5122608;27;20479;-74
2020/12/28 04:00:19;;;;;;;8.03;5.83;;;1.40;68.60;;;;;;5121187;27;20451;-75
2020/12/28 04:02:49;;;;;;;8.03;6.10;;;1.40;68.30;;;;;;5117003;27;20437;-74
2020/12/28 04:05:17;;;;;;;8.03;6.10;;;1.40;68.30;;;;;;5118483;27;20560;-74
2020/12/28 04:07:43;;;;;;;8.73;6.40;;;1.40;68.40;;;;;;5121175;27;20984;-74
2020/12/28 04:10:14;;;;;;;6.30;4.60;;;1.30;68.30;;;;;;5125740;27;20541;-75
2020/12/28 04:12:40;;;;;;;7.40;5.70;;;1.30;68.50;;;;;;5128161;27;20805;-74
2020/12/28 04:15:07;;;;;;;5.90;4.73;;;1.30;68.30;;;;;;5124584;27;20455;-74
2020/12/28 04:17:33;;;;;;;7.50;5.70;;;1.30;68.20;;;;;;5122908;27;20515;-74
2020/12/28 04:20:00;;;;;;;8.53;6.43;;;1.30;68.30;;;;;;5124683;27;20539;-74
2020/12/28 04:22:27;;;;;;;7.50;5.67;;;1.30;68.20;;;;;;5127389;27;20468;-74
2020/12/28 04:24:55;;;;;;;6.93;5.33;;;1.40;68.20;;;;;;5120838;27;21273;-74
2020/12/28 04:27:22;;;;;;;7.57;6.00;;;1.30;67.90;;;;;;5127273;27;20954;-74
2020/12/28 04:29:48;;;;;;;7.30;5.90;;;1.30;67.80;;;;;;5126525;27;20798;-74
2020/12/28 04:32:18;;;;;;;7.20;5.57;;;1.30;67.70;;;;;;5129770;27;20443;-74
2020/12/28 04:34:46;;;;;;;6.90;6.20;;;1.30;67.80;;;;;;5122368;27;20469;-74
2020/12/28 04:37:13;;;;;;;7.00;5.93;;;1.30;67.60;;;;;;5128614;27;21264;-74
2020/12/28 04:39:43;;;;;;;7.40;5.80;;;1.30;67.80;;;;;;5126981;27;20542;-72
2020/12/28 04:42:09;;;;;;;8.07;6.10;;;1.20;67.80;;;;;;5126847;27;20551;-73
2020/12/28 04:44:36;;;;;;;7.97;5.97;;;1.10;67.90;;;;;;5121939;27;22180;-73
2020/12/28 04:47:02;;;;;;;7.20;5.20;;;1.10;67.90;;;;;;5126831;27;20485;-74
2020/12/28 04:49:29;;;;;;;8.00;6.10;;;1.10;67.70;;;;;;5125219;27;20494;-74
2020/12/28 04:52:06;;;;;;;7.40;5.43;;;1.10;67.80;;;;;;5130453;27;20545;-73
2020/12/28 04:54:33;;;;;;;9.03;5.63;;;1.10;67.50;;;;;;5125766;27;20446;-73
2020/12/28 04:57:00;;;;;;;6.63;5.40;;;1.10;67.70;;;;;;5127840;27;20536;-75
2020/12/28 04:59:26;;;;;;;7.00;6.30;;;1.10;67.80;;;;;;5129537;27;20481;-75
2020/12/28 05:01:53;;;;;;;7.27;5.87;;;1.10;68.00;;;;;;5130600;27;20470;-75
2020/12/28 05:04:22;;;;;;;6.47;5.83;;;1.10;67.90;;;;;;5132706;27;20469;-75
2020/12/28 05:06:59;;;;;;;7.70;6.50;;;1.10;67.80;;;;;;5128255;27;20450;-75
2020/12/28 05:09:25;;;;;;;7.00;6.20;;;1.20;67.60;;;;;;5131299;27;21008;-75
2020/12/28 05:11:53;;;;;;;6.60;5.90;;;1.20;67.60;;;;;;5133357;27;20446;-74
2020/12/28 05:14:20;;;;;;;8.10;6.27;;;1.30;67.90;;;;;;5131899;27;20451;-75
2020/12/28 05:16:48;;;;;;;6.80;5.70;;;1.30;67.50;;;;;;5129865;27;20530;-75
2020/12/28 05:19:14;;;;;;;8.53;6.60;;;1.40;67.60;;;;;;5131561;27;20605;-74
2020/12/28 05:21:42;;;;;;;7.53;6.73;;;1.40;67.50;;;;;;5130531;27;20531;-75
2020/12/28 05:24:13;;;;;;;7.03;6.30;;;1.40;67.50;;;;;;5128414;27;20445;-75
2020/12/28 05:26:42;;;;;;;7.43;6.13;;;1.30;67.30;;;;;;5126057;27;20489;-75
2020/12/28 05:29:11;;;;;;;7.57;5.93;;;1.30;67.40;;;;;;5137137;27;20452;-75
2020/12/28 05:31:39;;;;;;;7.97;6.47;;;1.30;67.50;;;;;;5154165;27;20447;-76
2020/12/28 05:34:12;;;;;;;8.63;6.23;;;1.30;67.60;;;;;;5155230;27;20454;-75
2020/12/28 05:36:42;;;;;;;9.17;6.57;;;1.30;67.40;;;;;;5152541;27;20452;-75
2020/12/28 05:39:10;;;;;;;7.17;6.47;;;1.30;67.50;;;;;;5133840;27;20918;-75
2020/12/28 05:41:36;;;;;;;8.13;6.47;;;1.30;67.40;;;;;;5130992;27;20649;-75
2020/12/28 05:44:09;;;;;;;8.03;7.23;;;1.40;67.70;;;;;;5126974;27;20525;-74
2020/12/28 05:46:36;;;;;;;7.37;6.43;;;1.40;67.40;;;;;;5126370;27;20442;-74
2020/12/28 05:49:07;;;;;;;9.23;5.80;;;1.40;67.10;;;;;;5124689;27;20461;-74
2020/12/28 05:51:36;;;;;;;7.37;6.50;;;1.50;67.20;;;;;;5127187;27;20446;-74
2020/12/28 05:54:11;;;;;;;7.30;5.87;;;1.50;67.40;;;;;;5126560;27;20637;-74
2020/12/28 05:56:44;;;;;;;9.13;6.70;;;1.50;67.10;;;;;;5127648;27;20455;-75
2020/12/28 05:59:16;;;;;;;8.33;7.33;;;1.40;67.10;;;;;;5126559;27;20577;-74
2020/12/28 06:01:44;;;;;;;7.17;5.77;;;1.40;67.00;;;;;;5128724;27;21254;-74
2020/12/28 06:04:15;;;;;;;9.60;6.50;;;1.40;67.30;;;;;;5129361;27;20447;-75
2020/12/28 06:06:43;;;;;;;12.40;6.20;;;1.40;67.30;;;;;;5132340;27;20454;-75
2020/12/28 06:09:10;;;;;;;8.70;6.67;;;1.30;67.30;;;;;;5128633;27;20542;-75
2020/12/28 06:11:37;;;;;;;7.70;6.17;;;1.30;67.40;;;;;;5131616;27;20490;-76
2020/12/28 06:14:18;;;;;;;9.13;7.13;;;1.30;67.50;;;;;;5129471;27;20458;-75
2020/12/28 06:16:47;;;;;;;8.70;6.77;;;1.30;67.50;;;;;;5132925;27;21007;-75
2020/12/28 06:19:24;;;;;;;8.90;6.50;;;1.40;67.40;;;;;;5126662;27;20544;-74
2020/12/28 06:21:51;;;;;;;11.63;6.67;;;1.30;67.30;;;;;;5127788;27;20469;-74
2020/12/28 06:24:28;;;;;;;7.53;5.87;;;1.30;67.50;;;;;;5124408;27;21009;-74
2020/12/28 06:27:05;;;;;;;7.80;6.43;;;1.30;67.60;;;;;;5124350;27;20450;-75
2020/12/28 06:29:32;;;;;;;8.00;6.30;;;1.30;67.70;;;;;;5123143;27;20948;-75
2020/12/28 06:32:10;;;;;;;9.97;8.27;;;1.20;67.90;;;;;;5129844;27;20444;-75
2020/12/28 06:34:39;;;;;;;8.10;7.17;;;1.20;67.60;;;;;;5119058;27;21323;-75
2020/12/28 06:37:06;;;;;;;8.90;7.57;;;1.10;67.80;;;;;;5117754;27;20538;-75
2020/12/28 06:39:32;;;;;;;9.40;7.33;;;1.10;67.90;;;;;;5114672;27;20557;-74
2020/12/28 06:42:10;;;;;;;8.30;6.73;;;1.00;68.10;;;;;;5115952;27;20484;-75
2020/12/28 06:44:39;;;;;;;7.57;6.77;;;1.00;68.10;;;;;;5117194;27;20554;-74
2020/12/28 06:47:20;;;;;;;7.83;6.77;;;0.90;68.30;;;;;;5127118;27;20528;-75
2020/12/28 06:49:47;;;;;;;7.80;7.00;;;0.90;68.30;;;;;;5122139;27;20541;-75
2020/12/28 06:52:14;;;;;;;10.57;7.60;;;0.90;68.80;;;;;;5129723;27;20976;-74
2020/12/28 06:54:40;;;;;;;9.50;7.50;;;0.80;68.80;;;;;;5124002;27;20459;-75
2020/12/28 06:57:08;;;;;;;7.90;7.00;;;0.90;68.70;;;;;;5128024;27;20479;-74
2020/12/28 06:59:36;;;;;;;7.50;6.13;;;0.90;68.60;;;;;;5127553;27;20481;-75
2020/12/28 07:02:03;;;;;;;11.43;6.90;;;1.00;68.90;;;;;;5126319;27;20984;-74
2020/12/28 07:04:34;;;;;;;10.97;8.10;;;0.90;68.70;;;;;;5129228;27;20464;-75
2020/12/28 07:07:03;;;;;;;9.63;7.73;;;0.90;68.70;;;;;;5126846;27;20539;-74
2020/12/28 07:09:30;;;;;;;7.73;6.93;;;0.90;68.90;;;;;;5126805;27;20865;-74
2020/12/28 07:12:04;;;;;;;7.80;7.00;;;0.80;69.00;;;;;;5125205;27;20473;-75
2020/12/28 07:14:32;;;;;;;8.10;6.87;;;0.80;69.30;;;;;;5127374;27;20457;-73
2020/12/28 07:16:59;;;;;;;7.37;6.60;;;0.80;69.10;;;;;;5123282;27;20924;-73
2020/12/28 07:19:25;;;;;;;9.23;7.20;;;0.80;69.20;;;;;;5128168;27;20469;-72
2020/12/28 07:21:53;;;;;;;8.80;7.00;;;0.80;68.90;;;;;;5126603;27;20602;-72
2020/12/28 07:24:21;;;;;;;8.67;7.20;;;0.90;68.50;;;;;;5128313;27;20775;-72
2020/12/28 07:26:48;;;;;;;8.10;7.03;;;0.90;68.50;;;;;;5125308;27;20495;-72
2020/12/28 07:29:16;;;;;;;10.27;7.30;;;0.90;68.10;;;;;;5128140;27;20482;-72
2020/12/28 07:31:45;;;;;;;7.70;6.90;;;1.00;67.90;;;;;;5121527;27;20474;-72
2020/12/28 07:34:14;;;;;;;7.80;6.30;;;1.10;67.80;;;;;;5127867;27;20914;-72
2020/12/28 07:36:46;;;;;;;7.60;6.13;;;1.10;67.70;;;;;;5125016;27;20814;-72
2020/12/28 07:39:13;;;;;;;7.63;6.53;;;1.20;67.70;;;;;;5127976;27;20507;-72
2020/12/28 07:41:40;;;;;;;9.40;7.77;;;1.30;67.60;;;;;;5126395;27;20450;-73
2020/12/28 07:44:11;;;;;;;7.27;6.40;;;1.30;67.70;;;;;;5123397;27;20569;-73
2020/12/28 07:46:57;;;;;;;7.47;5.60;;;1.20;67.50;;;;;;5123047;27;21389;-73
2020/12/28 07:49:25;;;;;;;8.67;6.30;;;1.30;67.70;;;;;;5123590;27;20469;-73
2020/12/28 07:52:00;;;;;;;9.20;6.87;;;1.30;67.70;;;;;;5121817;27;20818;-73
2020/12/28 07:54:37;;;;;;;8.50;6.97;;;1.40;67.70;;;;;;5126493;27;20549;-72
2020/12/28 07:57:06;;;;;;;7.47;6.00;;;1.50;67.50;;;;;;5124080;27;20461;-72
2020/12/28 07:59:46;;;;;;;6.73;5.87;;;1.60;67.90;;;;;;5126517;27;20533;-72
2020/12/28 08:02:41;;;;;;;6.97;6.27;;;1.60;67.40;;;;;;5123291;27;20450;-73
2020/12/28 08:05:11;;;;;;;7.53;6.30;;;1.70;67.30;;;;;;5118605;27;20830;-73
2020/12/28 08:07:38;;;;;;;7.67;6.10;;;1.80;67.40;;;;;;5125838;27;20514;-74
2020/12/28 08:10:08;;;;;;;8.43;7.10;;;1.90;67.10;;;;;;5122922;27;20491;-73
2020/12/28 08:12:39;;;;;;;6.23;5.40;;;1.90;66.90;;;;;;5110727;27;20472;-74
2020/12/28 08:15:06;;;;;;;8.10;6.77;;;1.90;66.70;;;;;;5119329;27;20438;-74
2020/12/28 08:17:32;;;;;;;7.67;6.23;;;2.00;66.90;;;;;;5123488;27;20523;-73
2020/12/28 08:20:06;;;;;;;8.57;6.53;;;1.90;66.40;;;;;;5126404;27;20936;-73
2020/12/28 08:22:33;;;;;;;7.70;6.50;;;2.00;66.60;;;;;;5124102;27;20441;-73
2020/12/28 08:25:03;;;;;;;7.20;5.80;;;2.10;66.70;;;;;;5124129;27;20990;-73
2020/12/28 08:27:30;;;;;;;7.73;6.57;;;2.30;66.80;;;;;;5125634;27;20463;-73
2020/12/28 08:30:01;;;;;;;10.17;6.97;;;2.30;66.50;;;;;;5129467;27;20517;-74
2020/12/28 08:32:29;;;;;;;8.47;7.13;;;2.20;65.90;;;;;;5123320;27;20442;-74
2020/12/28 08:34:57;;;;;;;8.07;6.07;;;2.40;66.30;;;;;;5127941;27;20471;-74
2020/12/28 08:37:23;;;;;;;7.13;5.97;;;2.50;65.40;;;;;;5131039;27;20446;-74
2020/12/28 08:39:50;;;;;;;12.03;9.90;;;2.70;65.40;;;;;;5130380;27;20512;-74
2020/12/28 08:42:27;;;;;;;8.60;6.33;;;2.80;65.70;;;;;;5124620;27;20484;-74
2020/12/28 08:44:55;;;;;;;7.47;6.10;;;2.90;65.10;;;;;;5126039;27;20474;-74
2020/12/28 08:47:25;;;;;;;7.77;6.17;;;2.90;64.70;;;;;;5133672;27;20448;-73
2020/12/28 08:49:53;;;;;;;10.00;6.20;;;2.80;64.70;;;;;;5123387;27;20475;-73
2020/12/28 08:52:21;;;;;;;8.30;5.87;;;2.90;64.20;;;;;;5138541;27;20455;-73
2020/12/28 08:54:55;;;;;;;8.60;7.00;;;2.90;64.20;;;;;;5141499;27;20975;-74
2020/12/28 08:57:23;;;;;;;7.50;5.90;;;2.80;64.10;;;;;;5141141;27;20605;-74
2020/12/28 08:59:54;;;;;;;7.63;6.50;;;2.90;64.10;;;;;;5139997;27;20461;-74
2020/12/28 09:02:23;;;;;;;8.70;6.53;;;2.90;63.80;;;;;;5134263;27;20920;-75
2020/12/28 09:04:50;;;;;;;8.40;7.20;;;3.00;63.80;;;;;;5132461;27;20495;-74
2020/12/28 09:07:20;;;;;;;8.80;7.27;;;3.00;63.70;;;;;;5123351;27;20555;-74
2020/12/28 09:09:50;;;;;;;8.70;7.00;;;3.10;63.70;;;;;;5127651;27;20465;-74
2020/12/28 09:12:18;;;;;;;6.60;5.90;;;3.10;63.70;;;;;;5133215;27;20455;-74
2020/12/28 09:14:44;;;;;;;7.70;6.20;;;3.10;63.30;;;;;;5130431;27;20452;-75
2020/12/28 09:17:12;;;;;;;9.67;6.73;;;3.20;63.40;;;;;;5127926;27;20586;-73
2020/12/28 09:19:40;;;;;;;9.03;6.80;;;3.20;63.80;;;;;;5130923;27;20867;-74
2020/12/28 09:22:06;;;;;;;7.00;6.30;;;3.20;63.20;;;;;;5125840;27;20599;-76
2020/12/28 09:24:32;;;;;;;11.20;7.10;;;3.20;63.10;;;;;;5130715;27;20450;-76
2020/12/28 09:26:59;;;;;;;7.97;6.43;;;2.80;62.70;;;;;;5125808;27;20447;-73
2020/12/28 09:29:26;;;;;;;7.00;6.30;;;3.10;63.40;;;;;;5128712;27;20470;-74
2020/12/28 09:31:52;;;;;;;7.23;6.47;;;3.10;63.30;;;;;;5127779;27;20569;-73
2020/12/28 09:34:19;;;;;;;8.63;6.57;;;3.10;63.10;;;;;;5127524;27;20470;-73
2020/12/28 09:36:46;;;;;;;7.07;6.37;;;3.30;63.30;;;;;;5127978;27;20581;-73
2020/12/28 09:39:12;;;;;;;10.00;6.70;;;3.20;62.70;;;;;;5123108;27;20590;-73
2020/12/28 09:41:39;;;;;;;7.17;6.47;;;3.30;63.30;;;;;;5124098;27;20488;-73
2020/12/28 09:44:11;;;;;;;6.13;5.50;;;3.50;63.60;;;;;;5129940;27;20625;-74
2020/12/28 09:46:40;;;;;;;8.47;7.60;;;3.50;62.80;;;;;;5127321;27;20509;-74
2020/12/28 09:49:06;;;;;;;8.30;7.50;;;3.60;63.10;;;;;;5124530;27;20437;-74
2020/12/28 09:51:33;;;;;;;7.10;5.67;;;3.70;62.80;;;;;;5126465;27;21013;-74
2020/12/28 09:54:00;;;;;;;7.80;6.50;;;3.80;63.00;;;;;;5128010;27;20538;-74
2020/12/28 09:56:26;;;;;;;7.27;6.33;;;3.80;62.90;;;;;;5126736;27;20538;-73
2020/12/28 09:58:53;;;;;;;8.23;6.30;;;3.80;62.80;;;;;;5128159;27;20442;-76
2020/12/28 10:01:21;;;;;;;8.20;6.57;;;3.90;63.00;;;;;;5129933;27;20446;-74
2020/12/28 10:03:47;;;;;;;8.27;6.63;;;3.70;62.10;;;;;;5124562;27;20805;-73
2020/12/28 10:06:31;;;;;;;6.80;5.90;;;3.70;62.20;;;;;;5130062;27;20500;-74
2020/12/28 10:08:58;;;;;;;12.90;6.20;;;3.60;61.70;;;;;;5124627;27;20544;-74
2020/12/28 10:11:26;;;;;;;7.03;6.33;;;3.50;61.90;;;;;;5128513;27;20443;-74
2020/12/28 10:13:52;;;;;;;7.70;6.83;;;3.50;62.30;;;;;;5124067;27;20469;-75
2020/12/28 10:16:23;;;;;;;8.80;6.50;;;3.50;62.60;;;;;;5129169;27;20444;-74
2020/12/28 10:18:49;;;;;;;7.60;6.40;;;3.60;62.50;;;;;;5124861;27;20971;-74
2020/12/28 10:21:16;;;;;;;9.30;6.70;;;3.60;62.10;;;;;;5126546;27;20443;-73
2020/12/28 10:23:43;;;;;;;6.80;6.07;;;3.50;61.90;;;;;;5121095;27;20473;-74
2020/12/28 10:26:19;;;;;;;7.13;6.43;;;3.60;64.10;;;;;;5130464;27;20890;-74
2020/12/28 10:28:47;;;;;;;8.23;6.57;;;3.60;62.50;;;;;;5126174;27;20452;-74
2020/12/28 10:31:14;;;;;;;7.90;6.87;;;3.70;62.40;;;;;;5130862;27;20563;-74
2020/12/28 10:33:41;;;;;;;10.43;7.37;;;3.50;62.00;;;;;;5126947;27;20468;-74
2020/12/28 10:36:18;;;;;;;9.80;6.50;;;3.50;62.30;;;;;;5130034;27;20560;-73
2020/12/28 10:38:45;;;;;;;7.73;6.10;;;3.70;62.20;;;;;;5127067;27;21231;-73
2020/12/28 10:41:12;;;;;;;7.53;6.73;;;3.70;62.00;;;;;;5126120;27;20469;-73
2020/12/28 10:43:43;;;;;;;7.90;6.60;;;3.70;62.00;;;;;;5126364;27;21062;-74
2020/12/28 10:46:11;;;;;;;7.33;6.63;;;3.70;62.10;;;;;;5127143;27;22825;-75
2020/12/28 10:48:39;;;;;;;6.60;6.00;;;3.50;62.10;;;;;;5123526;27;20568;-76
2020/12/28 10:51:09;;;;;;;7.03;5.87;;;3.50;61.70;;;;;;5131061;27;20533;-75
2020/12/28 10:53:36;;;;;;;6.87;5.90;;;3.50;62.20;;;;;;5129989;27;20527;-77
2020/12/28 10:56:06;;;;;;;7.40;6.50;;;3.50;62.20;;;;;;5132583;27;20441;-75
2020/12/28 10:58:32;;;;;;;6.40;5.80;;;3.50;62.50;;;;;;5134674;27;20884;-76
2020/12/28 11:00:58;;;;;;;8.20;6.20;;;3.70;63.20;;;;;;5138300;27;20439;-75
2020/12/28 11:03:27;;;;;;;7.90;6.60;;;3.80;63.10;;;;;;5141663;27;20602;-75
2020/12/28 11:05:53;;;;;;;7.87;6.00;;;3.80;63.00;;;;;;5137121;27;20490;-77
2020/12/28 11:08:20;;;;;;;9.40;6.73;;;3.80;62.80;;;;;;5147360;27;20459;-75
2020/12/28 11:10:46;;;;;;;9.00;7.50;;;3.80;63.10;;;;;;5133646;27;20974;-75
2020/12/28 11:13:12;;;;;;;6.77;6.07;;;3.90;62.40;;;;;;5145363;27;20446;-75
2020/12/28 11:15:39;;;;;;;7.83;6.60;;;3.90;61.80;;;;;;5133194;27;20449;-73
2020/12/28 11:18:05;;;;;;;8.43;6.70;;;3.90;62.10;;;;;;5130910;27;20533;-77
2020/12/28 11:20:36;;;;;;;6.83;6.07;;;3.60;62.10;;;;;;5116882;27;21013;-75
2020/12/28 11:23:02;;;;;;;7.90;6.43;;;3.60;61.70;;;;;;5129755;27;20445;-75
2020/12/28 11:25:28;;;;;;;8.43;6.37;;;3.60;61.70;;;;;;5127733;27;21089;-74
2020/12/28 11:27:55;;;;;;;6.53;5.60;;;3.60;61.80;;;;;;5124428;27;21114;-75
2020/12/28 11:30:21;;;;;;;7.37;5.90;;;3.40;61.20;;;;;;5124731;27;20517;-74
2020/12/28 11:32:48;;;;;;;7.00;6.10;;;3.70;61.50;;;;;;5127299;27;20457;-74
2020/12/28 11:35:15;;;;;;;8.07;6.33;;;3.80;61.60;;;;;;5123433;27;20565;-76
2020/12/28 11:37:43;;;;;;;7.23;6.53;;;3.70;61.80;;;;;;5123570;27;20830;-76
2020/12/28 11:40:09;;;;;;;7.50;6.70;;;3.70;61.90;;;;;;5123699;27;20469;-76
2020/12/28 11:42:36;;;;;;;8.30;6.70;;;3.90;62.30;;;;;;5125667;27;20465;-77
2020/12/28 11:45:07;;;;;;;7.40;6.63;;;3.90;62.10;;;;;;5125666;27;20459;-76
2020/12/28 11:47:33;;;;;;;8.27;7.00;;;3.80;62.40;;;;;;5121809;27;20445;-75
2020/12/28 11:50:00;;;;;;;8.30;6.80;;;3.80;62.50;;;;;;5122724;27;20618;-75
2020/12/28 11:52:26;;;;;;;7.77;6.50;;;3.60;62.30;;;;;;5122879;27;20464;-75
2020/12/28 11:54:53;;;;;;;9.87;7.20;;;3.60;62.50;;;;;;5127315;27;20537;-75
2020/12/28 11:57:20;;;;;;;10.67;7.83;;;3.70;63.00;;;;;;5122420;27;20457;-75
2020/12/28 11:59:47;;;;;;;10.40;7.90;;;3.80;63.40;;;;;;5109290;27;20464;-76
2020/12/28 12:02:13;;;;;;;12.07;7.60;;;3.80;63.10;;;;;;5125923;27;20495;-75
2020/12/28 12:04:51;;;;;;;9.97;8.30;;;3.80;62.60;;;;;;5126086;27;20453;-75
2020/12/28 12:07:20;;;;;;;10.03;7.60;;;3.90;63.30;;;;;;5119550;27;20480;-75
2020/12/28 12:09:46;;;;;;;9.23;7.07;;;4.10;63.50;;;;;;5127387;27;20488;-75
2020/12/28 12:12:14;;;;;;;8.90;7.10;;;4.30;62.90;;;;;;5121734;27;20453;-75
2020/12/28 12:14:40;;;;;;;10.20;8.27;;;4.40;62.80;;;;;;5122458;27;20445;-76
2020/12/28 12:17:08;;;;;;;8.57;7.57;;;4.40;62.40;;;;;;5125981;27;20476;-76
2020/12/28 12:19:35;;;;;;;9.67;7.10;;;4.50;61.80;;;;;;5127416;27;20532;-76
2020/12/28 12:22:02;;;;;;;8.30;6.70;;;4.60;61.40;;;;;;5135793;27;20998;-76
2020/12/28 12:24:28;;;;;;;8.00;6.60;;;4.40;61.30;;;;;;5130832;27;20457;-75
2020/12/28 12:26:55;;;;;;;8.27;6.83;;;4.30;61.40;;;;;;5130716;27;20465;-75
2020/12/28 12:29:22;;;;;;;9.00;6.77;;;4.30;61.10;;;;;;5128707;27;20463;-77
2020/12/28 12:31:52;;;;;;;7.93;6.97;;;4.30;61.10;;;;;;5132604;27;20548;-76
2020/12/28 12:34:19;;;;;;;8.03;6.23;;;4.30;61.10;;;;;;5132558;27;20496;-75
2020/12/28 12:36:47;;;;;;;8.10;6.57;;;4.40;61.30;;;;;;5136353;27;20460;-75
2020/12/28 12:39:13;;;;;;;8.27;6.47;;;4.30;61.00;;;;;;5132671;27;20459;-75
2020/12/28 12:41:39;;;;;;;9.10;7.27;;;4.10;61.10;;;;;;5130737;27;20477;-76
2020/12/28 12:44:06;;;;;;;8.33;6.63;;;4.20;61.30;;;;;;5124774;27;20552;-75
2020/12/28 12:46:34;;;;;;;7.77;6.97;;;4.20;60.80;;;;;;5122375;27;20474;-77
2020/12/28 12:49:00;;;;;;;8.47;7.30;;;4.20;61.00;;;;;;5124646;27;20533;-75
2020/12/28 12:51:27;;;;;;;9.40;6.27;;;4.30;61.10;;;;;;5126384;27;20449;-74
2020/12/28 12:53:53;;;;;;;9.63;7.07;;;4.00;61.10;;;;;;5122164;27;20465;-75
2020/12/28 12:56:22;;;;;;;7.77;6.97;;;4.00;61.50;;;;;;5124127;27;20891;-75
2020/12/28 12:58:49;;;;;;;7.67;6.87;;;4.00;61.40;;;;;;5120448;27;20469;-76
2020/12/28 13:01:15;;;;;;;10.57;7.40;;;3.80;61.80;;;;;;5123907;27;20497;-75